Annemanie, Alabama
Current Conditions -  °F | °C
As of 10:35 AM on Friday 31 Oct 2014 (Local Time) from KDYA Reporting Station
Clear Clear  
Wind Chill: 17°   Ceiling: Unl
Heat Index: 17°   Visibility: 10mi
Dew Point:   Wind: 3mph
Humidity: 50%   Direction: 270°W
Pressure: 30"   Gusts: NA
Location:  32.05°N, 87.57°W
Report Text: KDYA 311535Z AUTO 27003KT 10SM CLR 17/06 A3000 RMK AO2 T01680063
Loading
Personal Weather Stations






























Interactive Weather Map
Tropical Storm Tracking
New forecast layout! Learn more

10-Day Weather Forecast

Advertisements
Track Severe Weather on mobile